Aérodrome :
LOGIN :

S'inscrire | Disclaimer

   EN    FR    IT 

 










Légende :    VFR   VFR Marginal   IFR   IFR Intensif   IFR Très Intensif
Visi : 
Plafond : 
>= 8 km
>= 3000ft
5 à 8 km
1000 à 3000 ft
1500m à 5 km
500 à 1000 ft
800 à 1500m
200 à 500 ft
< 800m
< 200 ft
Symboles :   Orages  Brouillard  Fortes neiges  Fortes précipitations  Vent > 20 kt
SIGMETs :   Divers  Orages  Givrage  Turbulence  Onde Orograph.  Cendres Volcan.







- Altitude de l'aérodrome : 574 ft
- Code IATA : NDR


GMMW - Nador El Aroui

DERNIER METAR :
  • 161900Z 05009KT 020V080 9999 FEW020 SCT026 25/18 Q1015 NOSIG

METARs EXPIRÉS :
  • 161800Z 06010KT 030V090 9999 SCT026 26/18 Q1015 NOSIG
  • 161700Z 04010KT 9999 SCT026 27/18 Q1014 NOSIG

TAF TAF GMMW
Valide du 16 à 18h jusqu'au 18 à 00h UTC


161700Z 1618/1724 04010KT 9999 SCT026
PROB30 1700/1707 VRB02KT 3000 BR
Pas de NOTAMs connus pour ce terrain.
1 SIGMET publié pour la FIR Casablanca (GMMM) :
 
Orages noyés dans la masse
GMMM SIGMET 05 VALID 161845/162145 GMMC
GMMM CASABLANCA FIR EMBD TS OBS E OF LINE N3402 W00150 - N3310 W002 13 - N3320 W00416 - N3207 W00457 - N3228 W00143 TOP FL280 MOV NE WKN=



MET'MAP, la Météo Aéronautique d'un coup d'oeil ! - Copyright ORBIFLY Décembre 2007 - Disclaimer

ORBIFLY MET'MAP TEAM :

Programmation & Développement : Alexandra Zaïnal
Conception & Développement : Baudouin d'Aumeries
Co-Programmation & Développement : Marc-Olivier Méhu
Soutien technique & logistique : Manuel Goepfert

Contact : metmap@orbifly.com




SOURCES & CREDITS :

   NOAA